KAKR/AKR METAR and TAF weather

Enter ICAO airport designator
Station Type Date Time Source
KAKR METAR 2022/11/30 16:54 UTC NOAA

KAKR 301654Z AUTO 27022G31KT 9SM 03/M02 A2980 RMK AO2 PK WND 27033/1621 SLP093 T00331022


Station Type Date Time Source
KAKR Decoded METAR 2022/11/30 16:54 UTC NOAA

AKRON FULTON INTERNATIONAL, OH, United States (KAKR) 41-02N 081-28W 363M
Nov 30, 2022 - 11:54 AM EST / 2022.11.30 1654 UTC
Wind: from the W (270 degrees) at 25 MPH (22 KT) gusting to 36 MPH (31 KT):0
Visibility: 9 mile(s):0
Temperature: 37.9 F (3.3 C)
Dew Point: 28.0 F (-2.2 C)
Relative Humidity: 67%
Pressure (altimeter): 29.8 in. Hg (1009 hPa)
ob: KAKR 301654Z AUTO 27022G31KT 9SM 03/M02 A2980 RMK AO2 PK WND 27033/1621 SLP093 T00331022
cycle: 17

Station Type Date Time Source
KAKR TAF UTC NOAA

Error!

Example: see airport list